.
WxDataArchive / Data Records for 2012-11-29
2012-11-28 November 2012 2012-11-30

Data Records for Thursday, 29 November 2012

Time	Temp	Chill	HIndex	Humid	Dewpt	 Wind 	HiWind	WindDir	Rain 	Barom 
-----	----	-----	------	-----	-----	------	------	-------	-----	----- 
00:00	29.4	29.4	29.4	76	22.8	0	1	248	0.00	30.354 
00:05	29.4	29.4	29.4	76	22.8	0	2	248	0.00	30.354 
00:10	29.5	29.5	29.5	76	22.9	0	1	248	0.00	30.354 
00:15	29.5	29.5	29.5	76	22.9	0	1	248	0.00	30.352 
00:20	29.7	29.7	29.7	76	23.1	0	1	248	0.00	30.352 
00:25	29.7	29.7	29.7	76	23.1	0	1	248	0.00	30.352 
00:30	29.7	29.7	29.7	76	23.1	0	1	248	0.00	30.351 
00:35	29.7	29.7	29.7	76	23.1	0	1	248	0.00	30.351 
00:40	29.7	29.7	29.7	76	23.1	0	1	248	0.00	30.351 
00:45	29.7	29.7	29.7	76	23.1	0	1	248	0.00	30.352 
00:50	29.7	29.7	29.7	76	23.1	0	1	248	0.00	30.352 
00:55	29.8	29.8	29.8	76	23.2	0	1	248	0.00	30.352 
01:00	29.8	29.8	29.8	76	23.2	0	1	248	0.00	30.350 
01:05	29.8	29.8	29.8	76	23.2	0	1	248	0.00	30.350 
01:10	29.8	29.8	29.8	76	23.2	0	1	248	0.00	30.350 
01:15	30.0	30.0	30.0	76	23.4	0	1	248	0.00	30.344 
01:20	30.0	30.0	30.0	76	23.4	0	1	248	0.00	30.344 
01:25	30.1	30.1	30.1	76	23.5	0	1	248	0.00	30.344 
01:30	30.1	30.1	30.1	76	23.5	0	2	248	0.00	30.336 
01:35	30.1	30.1	30.1	76	23.5	0	0	---	0.00	30.336 
01:40	30.1	30.1	30.1	76	23.5	0	1	248	0.00	30.336 
01:45	30.1	30.1	30.1	76	23.5	0	1	248	0.00	30.336 
01:50	30.1	30.1	30.1	76	23.5	0	1	248	0.00	30.336 
01:55	30.1	30.1	30.1	75	23.2	0	1	248	0.00	30.336 
02:00	30.3	30.3	30.3	75	23.3	0	1	248	0.00	30.337 
02:05	30.3	30.3	30.3	75	23.3	0	1	248	0.00	30.337 
02:10	30.4	30.4	30.4	75	23.4	0	2	248	0.00	30.337 
02:15	30.4	30.4	30.4	75	23.4	0	2	248	0.00	30.344 
02:20	30.4	30.4	30.4	74	23.1	0	1	248	0.00	30.344 
02:25	30.4	30.4	30.4	74	23.1	0	1	248	0.00	30.344 
02:30	30.3	30.3	30.3	74	23.0	0	1	248	0.00	30.343 
02:35	30.3	30.3	30.3	75	23.3	0	2	248	0.00	30.343 
02:40	30.1	30.1	30.1	75	23.2	0	1	248	0.00	30.343 
02:45	30.1	30.1	30.1	75	23.2	0	1	248	0.00	30.343 
02:50	30.1	30.1	30.1	75	23.2	0	0	---	0.00	30.343 
02:55	30.0	30.0	30.0	75	23.1	0	1	248	0.00	30.343 
03:00	29.8	29.8	29.8	75	22.9	0	1	248	0.00	30.337 
03:05	29.8	29.8	29.8	75	22.9	0	1	248	0.00	30.337 
03:10	29.7	29.7	29.7	75	22.8	0	1	248	0.00	30.337 
03:15	29.7	29.7	29.7	75	22.8	0	1	248	0.00	30.344 
03:20	29.5	29.5	29.5	75	22.6	0	1	248	0.00	30.344 
03:25	29.5	29.5	29.5	75	22.6	0	1	248	0.00	30.344 
03:30	29.5	29.5	29.5	76	22.9	0	2	248	0.00	30.350 
03:35	29.7	29.7	29.7	76	23.1	0	1	248	0.00	30.350 
03:40	29.7	29.7	29.7	76	23.1	0	1	248	0.00	30.350 
03:45	29.7	29.7	29.7	76	23.1	0	2	248	0.00	30.347 
03:50	29.8	29.8	29.8	75	22.9	0	1	248	0.00	30.347 
03:55	29.8	29.8	29.8	75	22.9	0	1	248	0.00	30.347 
04:00	29.8	29.8	29.8	76	23.2	0	2	248	0.00	30.337 
04:05	30.0	30.0	30.0	76	23.4	0	2	248	0.00	30.337 
04:10	30.1	30.1	30.1	76	23.5	0	2	248	0.00	30.337 
04:15	30.3	30.3	30.3	75	23.3	0	3	248	0.00	30.346 
04:20	30.4	30.4	30.4	75	23.4	0	2	248	0.00	30.346 
04:25	30.6	30.6	30.6	75	23.6	0	3	248	0.00	30.346 
04:30	30.6	30.6	30.6	74	23.3	0	1	248	0.00	30.339 
04:35	30.6	30.6	30.6	74	23.3	0	1	248	0.00	30.339 
04:40	30.6	30.6	30.6	74	23.3	0	2	248	0.00	30.339 
04:45	30.6	30.6	30.6	74	23.3	0	2	248	0.00	30.348 
04:50	30.7	30.7	30.7	74	23.4	0	2	248	0.00	30.348 
04:55	30.7	30.7	30.7	74	23.4	0	1	248	0.00	30.348 
05:00	30.9	30.9	30.9	74	23.6	0	2	248	0.00	30.346 
05:05	30.7	30.7	30.7	74	23.4	0	1	248	0.00	30.346 
05:10	30.7	30.7	30.7	74	23.4	0	1	248	0.00	30.346 
05:15	30.6	30.6	30.6	74	23.3	0	1	248	0.00	30.351 
05:20	30.4	30.4	30.4	74	23.1	0	1	248	0.00	30.351 
05:25	30.1	30.1	30.1	74	22.8	0	1	248	0.00	30.351 
05:30	30.1	30.1	30.1	75	23.2	0	1	248	0.00	30.346 
05:35	30.0	30.0	30.0	75	23.1	0	1	248	0.00	30.346 
05:40	30.1	30.1	30.1	75	23.2	0	1	248	0.00	30.346 
05:45	30.1	30.1	30.1	75	23.2	0	0	---	0.00	30.341 
05:50	30.1	30.1	30.1	75	23.2	0	2	248	0.00	30.341 
05:55	30.1	30.1	30.1	75	23.2	0	1	248	0.00	30.341 
06:00	30.0	30.0	30.0	75	23.1	0	1	248	0.00	30.342 
06:05	29.8	29.8	29.8	75	22.9	0	0	---	0.00	30.342 
06:10	29.7	29.7	29.7	75	22.8	0	0	---	0.00	30.342 
06:15	29.4	29.4	29.4	75	22.5	0	0	---	0.00	30.339 
06:20	29.3	29.3	29.3	75	22.4	0	0	---	0.00	30.339 
06:25	29.0	29.0	29.0	76	22.4	0	1	248	0.00	30.339 
06:30	28.8	28.8	28.8	76	22.2	0	1	248	0.00	30.340 
06:35	28.8	28.8	28.8	77	22.5	0	1	248	0.00	30.340 
06:40	28.7	28.7	28.7	77	22.4	0	1	248	0.00	30.340 
06:45	28.5	28.5	28.5	77	22.2	0	1	248	0.00	30.338 
06:50	28.5	28.5	28.5	77	22.2	0	0	---	0.00	30.338 
06:55	28.4	28.4	28.4	77	22.1	0	0	---	0.00	30.338 
07:00	28.2	28.2	28.2	77	21.9	0	0	---	0.00	30.330 
07:05	28.1	28.1	28.1	77	21.8	0	0	---	0.00	30.330 
07:10	27.9	27.9	27.9	77	21.6	0	1	248	0.00	30.330 
07:15	27.8	27.8	27.8	78	21.8	0	0	---	0.00	30.341 
07:20	27.8	27.8	27.8	78	21.8	0	0	---	0.00	30.341 
07:25	27.6	27.6	27.6	78	21.7	0	0	---	0.00	30.341 
07:30	27.5	27.5	27.5	79	21.9	0	0	---	0.00	30.346 
07:35	27.3	27.3	27.3	79	21.7	0	0	---	0.00	30.346 
07:40	27.2	27.2	27.2	79	21.6	0	0	---	0.00	30.346 
07:45	27.0	27.0	27.0	79	21.4	0	0	---	0.00	30.346 
07:50	27.0	27.0	27.0	80	21.7	0	0	---	0.00	30.346 
07:55	27.0	27.0	27.0	80	21.7	0	0	---	0.00	30.346 
08:00	26.9	26.9	26.9	80	21.6	0	0	---	0.00	30.345 
08:05	26.9	26.9	26.9	80	21.6	0	0	---	0.00	30.345 
08:10	27.0	27.0	27.0	81	22.0	0	0	---	0.00	30.345 
08:15	27.2	27.2	27.2	81	22.2	0	0	---	0.00	30.347 
08:20	27.3	27.3	27.3	81	22.3	0	0	---	0.00	30.347 
08:25	27.5	27.5	27.5	81	22.4	0	0	---	0.00	30.347 
08:30	27.8	27.8	27.8	80	22.4	0	1	248	0.00	30.347 
08:35	27.9	27.9	27.9	80	22.5	0	1	248	0.00	30.347 
08:40	28.4	28.4	28.4	80	23.0	0	0	---	0.00	30.347 
08:45	28.8	28.8	28.8	79	23.1	0	1	248	0.00	30.342 
08:50	29.3	29.3	29.3	78	23.3	0	1	248	0.00	30.342 
08:55	29.7	29.7	29.7	78	23.7	0	1	248	0.00	30.342 
09:00	30.1	30.1	30.1	77	23.8	0	1	248	0.00	30.343 
09:05	30.6	30.6	30.6	77	24.3	0	2	68	0.00	30.343 
09:10	31.2	31.2	31.2	76	24.5	0	4	68	0.00	30.343 
09:15	31.6	31.6	31.6	74	24.3	0	3	68	0.00	30.328 
09:20	32.1	32.1	32.1	73	24.4	0	3	68	0.00	30.328 
09:25	32.7	32.7	32.7	73	25.0	0	2	248	0.00	30.328 
09:30	33.1	33.1	33.1	71	24.7	0	2	270	0.00	30.329 
09:35	33.7	33.7	33.7	70	25.0	0	2	270	0.00	30.329 
09:40	34.1	34.1	34.1	69	25.0	0	2	270	0.00	30.329 
09:45	34.6	34.6	34.6	68	25.1	0	4	315	0.00	30.331 
09:50	35.0	35.0	35.0	67	25.2	1	3	248	0.00	30.331 
09:55	35.5	35.5	35.5	65	24.9	1	5	248	0.00	30.331 
10:00	35.9	35.9	35.9	65	25.3	1	4	248	0.00	30.332 
10:05	36.3	36.3	36.3	64	25.3	1	5	90	0.00	30.332 
10:10	36.8	36.8	36.8	63	25.4	2	6	248	0.00	30.332 
10:15	37.0	37.0	37.0	63	25.6	1	3	248	0.00	30.334 
10:20	37.5	37.5	37.5	62	25.7	1	5	248	0.00	30.334 
10:25	37.8	37.8	37.8	62	26.0	1	5	248	0.00	30.334 
10:30	38.0	38.0	38.0	61	25.8	1	5	248	0.00	30.335 
10:35	38.3	38.3	38.3	61	26.0	2	5	248	0.00	30.335 
10:40	38.6	38.6	38.6	61	26.3	1	7	248	0.00	30.335 
10:45	38.9	38.9	38.9	61	26.6	1	5	248	0.00	30.331 
10:50	39.2	39.2	39.2	60	26.5	2	6	248	0.00	30.331 
10:55	39.6	39.6	39.6	60	26.9	1	5	248	0.00	30.331 
11:00	39.9	39.9	39.9	59	26.7	1	4	248	0.00	30.332 
11:05	40.3	40.3	40.3	59	27.1	0	2	248	0.00	30.332 
11:10	40.8	40.8	40.8	59	27.6	1	3	248	0.00	30.332 
11:15	41.2	41.2	41.2	58	27.6	1	4	248	0.00	30.319 
11:20	41.5	41.5	41.5	56	27.0	1	7	248	0.00	30.319 
11:25	41.6	41.6	41.6	56	27.1	1	7	248	0.00	30.319 
11:30	41.8	41.8	41.8	56	27.3	2	5	248	0.00	30.312 
11:35	42.1	42.1	42.1	56	27.5	1	3	248	0.00	30.312 
11:40	42.5	42.5	42.5	54	27.0	2	5	248	0.00	30.312 
11:45	42.8	42.8	42.8	55	27.8	1	4	225	0.00	30.309 
11:50	42.9	42.9	42.9	55	27.9	2	5	248	0.00	30.309 
11:55	43.3	43.3	43.3	54	27.8	2	7	248	0.00	30.309 
12:00	43.5	43.5	43.5	53	27.5	2	6	248	0.00	30.299 
12:05	43.8	43.8	43.8	54	28.3	1	6	270	0.00	30.299 
12:10	44.2	44.2	44.2	53	28.2	1	3	270	0.00	30.299 
12:15	44.2	44.2	44.2	52	27.7	2	5	248	0.00	30.283 
12:20	44.2	44.2	44.2	52	27.7	2	5	248	0.00	30.283 
12:25	44.3	44.3	44.3	52	27.8	2	6	248	0.00	30.283 
12:30	44.5	44.5	44.5	52	28.0	2	7	248	0.00	30.274 
12:35	44.5	44.5	44.5	52	28.0	2	6	248	0.00	30.274 
12:40	44.5	44.5	44.5	52	28.0	2	7	248	0.00	30.274 
12:45	44.6	44.6	44.6	52	28.1	2	7	248	0.00	30.267 
12:50	44.8	44.8	44.8	51	27.8	2	6	248	0.00	30.267 
12:55	44.9	44.9	44.9	51	27.9	3	9	248	0.00	30.267 
13:00	45.1	45.1	45.1	51	28.1	2	6	248	0.00	30.261 
13:05	45.2	45.2	45.2	52	28.6	1	9	248	0.00	30.261 
13:10	45.4	45.4	45.4	51	28.3	2	6	248	0.00	30.261 
13:15	45.4	45.4	45.4	50	27.9	2	7	248	0.00	30.251 
13:20	45.5	45.5	45.5	50	28.0	2	5	248	0.00	30.251 
13:25	45.7	45.7	45.7	50	28.1	2	5	248	0.00	30.251 
13:30	46.0	46.0	46.0	50	28.4	1	4	248	0.00	30.248 
13:35	46.0	46.0	46.0	50	28.4	1	3	248	0.00	30.248 
13:40	46.0	46.0	46.0	49	27.9	1	5	292	0.00	30.248 
13:45	46.1	46.1	46.1	49	28.0	2	7	248	0.00	30.237 
13:50	46.2	46.2	46.2	48	27.6	2	5	248	0.00	30.237 
13:55	46.5	46.5	46.5	47	27.4	1	6	248	0.00	30.237 
14:00	46.7	46.7	46.7	47	27.6	1	4	248	0.00	30.231 
14:05	46.8	46.8	46.8	48	28.2	0	3	248	0.00	30.231 
14:10	47.0	47.0	47.0	47	27.8	1	3	248	0.00	30.231 
14:15	47.1	47.1	47.1	47	27.9	1	4	248	0.00	30.225 
14:20	47.1	47.1	47.1	45	26.9	2	6	248	0.00	30.225 
14:25	47.1	47.1	47.1	45	26.9	1	5	248	0.00	30.225 
14:30	47.1	47.1	47.1	46	27.4	1	4	248	0.00	30.217 
14:35	47.4	47.4	47.4	46	27.7	1	4	248	0.00	30.217 
14:40	47.4	47.4	47.4	44	26.6	2	6	248	0.00	30.217 
14:45	47.4	47.4	47.4	44	26.6	2	5	90	0.00	30.214 
14:50	47.3	47.3	47.3	45	27.0	1	3	225	0.00	30.214 
14:55	47.3	47.3	47.3	46	27.6	1	5	248	0.00	30.214 
15:00	47.3	47.3	47.3	44	26.5	2	6	248	0.00	30.212 
15:05	47.3	47.3	47.3	44	26.5	2	7	248	0.00	30.212 
15:10	47.3	47.3	47.3	45	27.0	2	6	248	0.00	30.212 
15:15	47.4	47.4	47.4	45	27.1	1	6	248	0.00	30.210 
15:20	47.6	47.6	47.6	44	26.8	2	7	248	0.00	30.210 
15:25	47.7	47.7	47.7	44	26.9	2	5	248	0.00	30.210 
15:30	47.7	47.7	47.7	44	26.9	2	7	248	0.00	30.209 
15:35	47.7	47.7	47.7	44	26.9	2	6	248	0.00	30.209 
15:40	47.6	47.6	47.6	45	27.3	1	4	225	0.00	30.209 
15:45	47.4	47.4	47.4	46	27.7	1	3	248	0.00	30.216 
15:50	47.1	47.1	47.1	46	27.4	1	5	248	0.00	30.216 
15:55	47.0	47.0	47.0	46	27.3	1	5	248	0.00	30.216 
16:00	46.7	46.7	46.7	46	27.0	1	5	225	0.00	30.217 
16:05	46.5	46.5	46.5	48	27.9	1	3	292	0.00	30.217 
16:10	46.5	46.5	46.5	47	27.4	1	4	270	0.00	30.217 
16:15	46.4	46.4	46.4	47	27.3	0	2	270	0.00	30.215 
16:20	46.2	46.2	46.2	48	27.6	1	3	270	0.00	30.215 
16:25	46.1	46.1	46.1	48	27.5	0	5	248	0.00	30.215 
16:30	45.7	45.7	45.7	49	27.6	0	1	248	0.00	30.215 
16:35	45.4	45.4	45.4	50	27.9	0	2	248	0.00	30.215 
16:40	44.9	44.9	44.9	50	27.4	0	2	248	0.00	30.215 
16:45	44.6	44.6	44.6	51	27.6	0	2	248	0.00	30.216 
16:50	44.3	44.3	44.3	52	27.8	0	1	248	0.00	30.216 
16:55	44.1	44.1	44.1	52	27.6	0	1	248	0.00	30.216 
17:00	43.9	43.9	43.9	53	27.9	0	3	248	0.00	30.218 
17:05	43.6	43.6	43.6	53	27.6	0	2	248	0.00	30.218 
17:10	43.3	43.3	43.3	54	27.8	0	1	248	0.00	30.218 
17:15	42.9	42.9	42.9	55	27.9	0	1	248	0.00	30.218 
17:20	42.6	42.6	42.6	55	27.6	0	1	248	0.00	30.218 
17:25	42.3	42.3	42.3	56	27.7	0	0	---	0.00	30.218 
17:30	42.1	42.1	42.1	57	28.0	0	0	---	0.00	30.211 
17:35	41.8	41.8	41.8	57	27.7	0	1	248	0.00	30.211 
17:40	41.5	41.5	41.5	58	27.8	0	0	---	0.00	30.211 
17:45	41.2	41.2	41.2	58	27.6	0	0	---	0.00	30.216 
17:50	41.1	41.1	41.1	59	27.9	0	0	---	0.00	30.216 
17:55	40.9	40.9	40.9	59	27.7	0	0	---	0.00	30.216 
18:00	40.8	40.8	40.8	59	27.6	0	0	---	0.00	30.215 
18:05	40.6	40.6	40.6	60	27.8	0	0	---	0.00	30.215 
18:10	40.5	40.5	40.5	60	27.7	0	1	248	0.00	30.215 
18:15	40.5	40.5	40.5	61	28.1	0	1	248	0.00	30.216 
18:20	40.5	40.5	40.5	61	28.1	0	0	---	0.00	30.216 
18:25	40.3	40.3	40.3	61	27.9	0	0	---	0.00	30.216 
18:30	40.2	40.2	40.2	62	28.2	0	0	---	0.00	30.217 
18:35	40.2	40.2	40.2	62	28.2	0	0	---	0.00	30.217 
18:40	40.1	40.1	40.1	62	28.1	0	0	---	0.00	30.217 
18:45	40.1	40.1	40.1	62	28.1	0	0	---	0.00	30.222 
18:50	40.1	40.1	40.1	63	28.5	0	1	248	0.00	30.222 
18:55	40.1	40.1	40.1	63	28.5	0	0	---	0.00	30.222 
19:00	39.9	39.9	39.9	63	28.3	0	0	---	0.00	30.221 
19:05	40.1	40.1	40.1	64	28.9	0	1	248	0.00	30.221 
19:10	40.2	40.2	40.2	64	29.0	0	1	248	0.00	30.221 
19:15	40.5	40.5	40.5	64	29.3	0	0	---	0.00	30.223 
19:20	40.6	40.6	40.6	64	29.4	0	0	---	0.00	30.223 
19:25	40.9	40.9	40.9	63	29.3	0	1	248	0.00	30.223 
19:30	41.1	41.1	41.1	63	29.5	0	1	248	0.00	30.218 
19:35	41.2	41.2	41.2	63	29.6	0	0	---	0.00	30.218 
19:40	41.3	41.3	41.3	62	29.3	0	1	248	0.00	30.218 
19:45	41.5	41.5	41.5	62	29.5	0	1	248	0.00	30.218 
19:50	41.6	41.6	41.6	62	29.6	0	1	248	0.00	30.218 
19:55	41.6	41.6	41.6	61	29.2	0	1	248	0.00	30.218 
20:00	41.8	41.8	41.8	61	29.4	0	1	248	0.00	30.220 
20:05	41.9	41.9	41.9	61	29.4	0	1	248	0.00	30.220 
20:10	41.9	41.9	41.9	61	29.4	0	1	248	0.00	30.220 
20:15	41.9	41.9	41.9	60	29.0	0	2	248	0.00	30.217 
20:20	42.1	42.1	42.1	60	29.2	0	1	248	0.00	30.217 
20:25	42.1	42.1	42.1	60	29.2	0	1	248	0.00	30.217 
20:30	42.1	42.1	42.1	60	29.2	0	2	248	0.00	30.216 
20:35	42.1	42.1	42.1	60	29.2	0	1	248	0.00	30.216 
20:40	42.1	42.1	42.1	60	29.2	0	2	248	0.00	30.216 
20:45	42.2	42.2	42.2	59	28.9	0	1	248	0.00	30.212 
20:50	42.2	42.2	42.2	59	28.9	0	2	248	0.00	30.212 
20:55	42.3	42.3	42.3	59	29.0	0	1	248	0.00	30.212 
21:00	42.3	42.3	42.3	59	29.0	0	2	248	0.00	30.212 
21:05	42.3	42.3	42.3	59	29.0	0	1	248	0.00	30.212 
21:10	42.3	42.3	42.3	59	29.0	0	1	248	0.00	30.212 
21:15	42.3	42.3	42.3	59	29.0	0	1	248	0.00	30.211 
21:20	42.2	42.2	42.2	59	28.9	0	1	248	0.00	30.211 
21:25	42.2	42.2	42.2	59	28.9	0	2	248	0.00	30.211 
21:30	42.2	42.2	42.2	59	28.9	0	2	248	0.00	30.212 
21:35	42.2	42.2	42.2	58	28.5	0	1	248	0.00	30.212 
21:40	42.2	42.2	42.2	59	28.9	0	3	248	0.00	30.212 
21:45	42.2	42.2	42.2	59	28.9	0	3	68	0.00	30.213 
21:50	42.1	42.1	42.1	58	28.4	0	2	68	0.00	30.213 
21:55	42.1	42.1	42.1	58	28.4	0	1	68	0.00	30.213 
22:00	41.9	41.9	41.9	59	28.6	0	1	68	0.00	30.213 
22:05	41.8	41.8	41.8	59	28.5	0	0	---	0.00	30.213 
22:10	41.6	41.6	41.6	60	28.8	0	0	---	0.00	30.213 
22:15	41.3	41.3	41.3	60	28.5	0	1	68	0.00	30.210 
22:20	41.2	41.2	41.2	61	28.8	0	1	68	0.00	30.210 
22:25	41.2	41.2	41.2	61	28.8	0	1	68	0.00	30.210 
22:30	41.2	41.2	41.2	61	28.8	0	1	68	0.00	30.212 
22:35	41.3	41.3	41.3	60	28.5	0	0	---	0.00	30.212 
22:40	41.3	41.3	41.3	60	28.5	0	0	---	0.00	30.212 
22:45	41.5	41.5	41.5	60	28.7	0	1	68	0.00	30.212 
22:50	41.5	41.5	41.5	60	28.7	0	0	---	0.00	30.212 
22:55	41.5	41.5	41.5	60	28.7	0	1	68	0.00	30.212 
23:00	41.5	41.5	41.5	60	28.7	0	2	68	0.00	30.204 
23:05	41.5	41.5	41.5	59	28.3	0	2	68	0.00	30.204 
23:10	41.6	41.6	41.6	59	28.3	0	1	68	0.00	30.204 
23:15	41.6	41.6	41.6	60	28.8	0	1	68	0.00	30.193 
23:20	41.6	41.6	41.6	59	28.3	0	1	68	0.00	30.193 
23:25	41.6	41.6	41.6	59	28.3	0	0	---	0.00	30.193 
23:30	41.6	41.6	41.6	59	28.3	0	1	68	0.00	30.193 
23:35	41.6	41.6	41.6	59	28.3	0	2	68	0.00	30.193 
23:40	41.6	41.6	41.6	59	28.3	0	1	68	0.00	30.193 
23:45	41.5	41.5	41.5	59	28.3	0	1	68	0.00	30.193 
23:50	41.5	41.5	41.5	59	28.3	0	1	68	0.00	30.193 
23:55	41.5	41.5	41.5	59	28.3	0	1	68	0.00	30.193 

CoCoRaHS
IN-AL-39
A2 Web Hosting
Creative Commons License
GoDaddy
search engine by freefind advanced

loaded 2018-11-20 02:58:25 • last modified 2010-11-18 10:43:29
Privacy PolicyDisclaimer
• wx.awcolley.com is powered by PmWiki v.2002016 •
• all content (unless otherwise noted) © 2018 A W Colley